KLHX

La Junta Municipal Airport

La Junta, Colorado, USA
METAR KLHX 230753Z AUTO 03009KT 5SM BR CLR M06/M08 A3007 RMK AO2 SLP206 T10611083
Observed Flight Rules
Feb-23 @ 07:53 UTC (29 minutes ago) Marginal Visual Flight Rules
Wind Visibility Clouds Conditions
30° at 9 knots 5 miles
  • Clear skies
  • Mist
Temperatures Readings
Current -6°C / 21°F
Dewpoint -8°C / 18°F
Humidity 86%
Altimeter 30.07" Hg
Pressure 1020.6 hPa
Elevation 1277
METAR KLHX 230753Z AUTO 03009KT 5SM BR CLR M06/M08 A3007 RMK AO2 SLP206 T10611083
Observed Flight Rules
Feb-23 @ 07:53 UTC
(29 minutes ago)
MVFR
Wind Visibility
30° at 9 knots 5 miles
Clouds
  • Clear skies
Conditions
  • Mist
Temperature Dewpoint
-6°C / 21°F -8°C / 18°F
Humidity Altimeter Pressure
86% 30.07" Hg 1020.6 hPa